createdAt,value
2023-04-15T00:00:11.968Z,7.12
2023-04-15T00:05:13.266Z,6.99
2023-04-15T00:10:14.594Z,7.32
2023-04-15T00:15:16.391Z,7.26
2023-04-15T00:20:17.703Z,7.10
2023-04-15T00:25:18.927Z,7.23
2023-04-15T00:30:20.557Z,7.17
2023-04-15T00:35:21.867Z,7.05
2023-04-15T00:40:24.655Z,7.02
2023-04-15T00:45:26.159Z,7.27
2023-04-15T00:50:27.683Z,7.35
2023-04-15T00:55:29.040Z,7.87
2023-04-15T01:00:30.457Z,8.20
2023-04-15T01:05:31.863Z,7.89
2023-04-15T01:10:33.072Z,7.75
2023-04-15T01:20:36.319Z,7.36
2023-04-15T01:25:38.260Z,7.32
2023-04-15T01:30:39.507Z,7.32
2023-04-15T01:35:40.997Z,7.33
2023-04-15T01:40:42.255Z,7.08
2023-04-15T01:45:43.468Z,7.32
2023-04-15T01:50:44.680Z,6.83
2023-04-15T01:55:45.891Z,6.98
2023-04-15T02:00:47.274Z,6.96
2023-04-15T02:05:49.152Z,7.00
2023-04-15T02:10:50.923Z,7.25
2023-04-15T02:15:53.043Z,6.97
2023-04-15T02:20:54.603Z,6.89
2023-04-15T02:25:55.900Z,6.96
2023-04-15T02:30:59.227Z,7.06
2023-04-15T02:36:00.470Z,7.17
2023-04-15T02:41:01.720Z,7.05
2023-04-15T02:46:03.033Z,7.09
2023-04-15T02:51:04.286Z,7.22
2023-04-15T02:56:06.665Z,6.94
2023-04-15T03:01:08.947Z,6.94
2023-04-15T03:06:10.674Z,7.04
2023-04-15T03:11:12.612Z,6.94
2023-04-15T03:16:14.076Z,7.11
2023-04-15T03:21:15.512Z,7.04
2023-04-15T03:26:16.849Z,7.12
2023-04-15T03:31:18.197Z,7.10
2023-04-15T03:36:19.504Z,7.12
2023-04-15T03:41:20.709Z,6.92
2023-04-15T03:46:22.139Z,6.95
2023-04-15T03:51:23.486Z,7.13
2023-04-15T03:56:24.718Z,6.55
2023-04-15T04:01:26.208Z,6.59
2023-04-15T04:06:27.542Z,6.50
2023-04-15T04:11:28.827Z,6.23
2023-04-15T04:16:30.102Z,6.03
2023-04-15T04:21:34.059Z,6.22
2023-04-15T04:26:35.330Z,6.25
2023-04-15T04:31:37.032Z,6.13
2023-04-15T04:36:38.287Z,6.24
2023-04-15T04:41:39.510Z,6.39
2023-04-15T04:46:40.805Z,6.84
2023-04-15T04:51:42.090Z,7.12
2023-04-15T04:56:43.350Z,7.23
2023-04-15T05:01:44.703Z,7.14
2023-04-15T05:06:45.967Z,7.17
2023-04-15T05:11:47.172Z,7.46
2023-04-15T05:16:48.379Z,7.50
2023-04-15T05:21:49.593Z,7.27
2023-04-15T05:26:51.089Z,7.20
2023-04-15T05:31:52.345Z,7.03
2023-04-15T05:36:53.720Z,6.63
2023-04-15T05:41:54.971Z,6.16
2023-04-15T05:46:56.208Z,6.55
2023-04-15T05:51:57.499Z,6.63
2023-04-15T05:56:59.034Z,6.47
2023-04-15T06:02:00.368Z,5.97
2023-04-15T06:07:01.678Z,6.11
2023-04-15T06:12:03.140Z,6.06
2023-04-15T06:17:04.523Z,6.07
2023-04-15T06:22:07.277Z,6.26
2023-04-15T06:27:08.526Z,6.32
2023-04-15T06:32:09.812Z,6.83
2023-04-15T06:37:15.865Z,6.58
2023-04-15T06:42:17.103Z,6.24
2023-04-15T06:47:18.488Z,5.82
2023-04-15T06:52:19.754Z,6.21
2023-04-15T06:57:21.231Z,6.18
2023-04-15T07:02:22.545Z,6.41
2023-04-15T07:07:23.860Z,6.56
2023-04-15T07:12:25.236Z,6.56
2023-04-15T07:17:26.531Z,6.38
2023-04-15T07:22:27.906Z,6.53
2023-04-15T07:27:29.285Z,6.76
2023-04-15T07:32:30.632Z,6.96
2023-04-15T07:37:32.295Z,7.35
2023-04-15T07:42:34.166Z,7.24
2023-04-15T07:47:35.678Z,7.60
2023-04-15T07:52:39.394Z,7.50
2023-04-15T07:57:40.847Z,7.16
2023-04-15T08:02:43.038Z,6.84
2023-04-15T08:07:44.487Z,7.07
2023-04-15T08:12:49.080Z,6.68
2023-04-15T08:17:50.524Z,6.85
2023-04-15T08:22:52.554Z,6.62
2023-04-15T08:27:53.846Z,6.49
2023-04-15T08:32:55.294Z,6.63
2023-04-15T08:37:56.698Z,6.98
2023-04-15T08:42:57.916Z,6.66
2023-04-15T08:47:59.191Z,6.84
2023-04-15T08:53:00.542Z,6.71
2023-04-15T08:58:01.791Z,6.86
2023-04-15T09:03:03.168Z,6.92
2023-04-15T09:08:04.706Z,7.05
2023-04-15T09:13:05.991Z,6.74
2023-04-15T09:18:07.254Z,7.11
2023-04-15T09:23:09.543Z,7.18
2023-04-15T09:28:11.382Z,7.32
2023-04-15T09:33:12.720Z,7.31
2023-04-15T09:38:13.939Z,7.38
2023-04-15T09:43:16.815Z,7.08
2023-04-15T09:48:18.110Z,6.94
2023-04-15T09:53:19.568Z,6.97
2023-04-15T09:58:20.912Z,6.91
2023-04-15T10:03:22.457Z,7.30
2023-04-15T10:08:24.942Z,7.64
2023-04-15T10:13:26.314Z,7.39
2023-04-15T10:18:29.233Z,7.46
2023-04-15T10:23:30.497Z,7.53
2023-04-15T10:28:31.756Z,7.73
2023-04-15T10:33:33.554Z,7.81
2023-04-15T10:38:34.904Z,7.52
2023-04-15T10:43:36.154Z,7.60
2023-04-15T10:48:37.422Z,7.54
2023-04-15T10:53:39.992Z,7.88
2023-04-15T10:58:41.232Z,7.89
2023-04-15T11:03:42.496Z,8.48
2023-04-15T11:08:43.873Z,8.91
2023-04-15T11:13:45.689Z,8.79
2023-04-15T11:18:46.983Z,9.00
2023-04-15T11:23:48.208Z,8.26
2023-04-15T11:28:49.474Z,8.96
2023-04-15T11:33:51.058Z,9.31
2023-04-15T11:38:52.356Z,8.24
2023-04-15T11:43:53.619Z,8.53
2023-04-15T11:48:54.835Z,8.93
2023-04-15T11:53:56.868Z,9.27
2023-04-15T11:59:01.300Z,8.83
2023-04-15T12:04:04.266Z,8.52
2023-04-15T12:09:05.898Z,8.95
2023-04-15T12:14:07.552Z,8.70
2023-04-15T12:19:08.904Z,8.64
2023-04-15T12:24:10.387Z,8.42
2023-04-15T12:29:11.603Z,8.68
2023-04-15T12:34:14.041Z,8.47
2023-04-15T12:39:15.304Z,8.34
2023-04-15T12:44:16.915Z,8.28
2023-04-15T12:49:20.804Z,8.43
2023-04-15T12:54:22.002Z,8.54
2023-04-15T12:59:24.178Z,8.63
2023-04-15T13:04:25.712Z,8.49
2023-04-15T13:09:27.157Z,8.63
2023-04-15T13:14:28.532Z,9.31
2023-04-15T13:19:29.768Z,9.48
2023-04-15T13:24:31.092Z,8.87
2023-04-15T13:29:32.626Z,9.20
2023-04-15T13:34:33.830Z,8.95
2023-04-15T13:39:35.174Z,8.52
2023-04-15T13:44:36.462Z,8.89
2023-04-15T13:49:37.713Z,8.78
2023-04-15T13:54:38.960Z,8.46
2023-04-15T13:59:40.451Z,8.26
2023-04-15T14:04:41.714Z,8.07
2023-04-15T14:09:43.547Z,8.34
2023-04-15T14:14:44.833Z,8.19
2023-04-15T14:19:46.183Z,8.21
2023-04-15T14:24:49.172Z,8.38
2023-04-15T14:29:50.671Z,8.43
2023-04-15T14:34:51.899Z,8.33
2023-04-15T14:39:53.182Z,8.16
2023-04-15T14:44:54.441Z,8.47
2023-04-15T14:49:55.972Z,8.49
2023-04-15T14:54:57.306Z,8.60
2023-04-15T14:59:59.236Z,8.65
2023-04-15T15:05:00.667Z,8.45
2023-04-15T15:10:03.812Z,8.53
2023-04-15T15:15:12.173Z,8.46
2023-04-15T15:20:17.467Z,8.45
2023-04-15T15:25:18.766Z,8.20
2023-04-15T15:30:20.025Z,8.40
2023-04-15T15:35:22.958Z,8.54
2023-04-15T15:40:24.277Z,8.51
2023-04-15T15:45:25.559Z,8.62
2023-04-15T15:50:26.907Z,8.42
2023-04-15T15:55:28.271Z,8.61
2023-04-15T16:00:29.650Z,8.92
2023-04-15T16:05:31.168Z,9.11
2023-04-15T16:10:32.495Z,9.42
2023-04-15T16:15:34.431Z,10.00
2023-04-15T16:20:35.740Z,9.73
2023-04-15T16:25:36.989Z,9.77
2023-04-15T16:30:38.772Z,9.18
2023-04-15T16:35:39.996Z,9.10
2023-04-15T16:40:42.537Z,9.20
2023-04-15T16:45:45.346Z,9.07
2023-04-15T16:50:46.640Z,9.37
2023-04-15T16:55:47.938Z,9.46
2023-04-15T17:00:49.240Z,8.93
2023-04-15T17:05:50.708Z,9.13
2023-04-15T17:10:51.982Z,8.73
2023-04-15T17:15:55.611Z,9.02
2023-04-15T17:20:57.218Z,9.09
2023-04-15T17:25:58.417Z,8.93
2023-04-15T17:30:59.701Z,9.20
2023-04-15T17:36:00.968Z,8.62
2023-04-15T17:41:02.271Z,8.90
2023-04-15T17:46:03.540Z,9.09
2023-04-15T17:51:04.861Z,8.76
2023-04-15T17:56:06.099Z,8.95
2023-04-15T18:01:07.368Z,9.57
2023-04-15T18:06:08.593Z,9.00
2023-04-15T18:11:12.028Z,9.65
2023-04-15T18:16:13.348Z,9.15
2023-04-15T18:21:14.659Z,9.08
2023-04-15T18:26:16.001Z,8.74
2023-04-15T18:31:17.353Z,8.95
2023-04-15T18:36:18.621Z,8.70
2023-04-15T18:41:19.887Z,8.74
2023-04-15T18:46:21.241Z,8.62
2023-04-15T18:51:22.499Z,8.81
2023-04-15T18:56:23.718Z,8.64
2023-04-15T19:01:25.248Z,8.67
2023-04-15T19:06:27.217Z,8.39
2023-04-15T19:11:28.555Z,8.54
2023-04-15T19:16:29.817Z,8.39
2023-04-15T19:21:31.851Z,8.83
2023-04-15T19:26:33.058Z,8.85
2023-04-15T19:31:34.301Z,8.32
2023-04-15T19:36:35.710Z,8.25
2023-04-15T19:41:38.636Z,8.09
2023-04-15T19:46:40.034Z,8.29
2023-04-15T19:51:41.424Z,7.91
2023-04-15T19:56:42.642Z,8.20
2023-04-15T20:01:43.987Z,8.31
2023-04-15T20:06:45.408Z,8.16
2023-04-15T20:12:46.927Z,8.28
2023-04-15T20:17:08.020Z,7.99
2023-04-15T20:22:09.632Z,8.11
2023-04-15T20:27:11.191Z,8.24
2023-04-15T20:32:12.807Z,8.13
2023-04-15T20:37:14.084Z,8.14
2023-04-15T20:42:15.383Z,8.08
2023-04-15T20:47:16.774Z,8.05
2023-04-15T20:52:18.082Z,8.09
2023-04-15T20:57:20.363Z,8.19
2023-04-15T21:02:21.722Z,8.11
2023-04-15T21:07:23.110Z,8.19
2023-04-15T21:12:24.375Z,8.26
2023-04-15T21:17:25.671Z,8.27
2023-04-15T21:22:26.922Z,8.64
2023-04-15T21:27:28.279Z,9.06
2023-04-15T21:32:30.778Z,9.33
2023-04-15T21:37:32.521Z,9.67
2023-04-15T21:42:33.897Z,9.63
2023-04-15T21:48:06.847Z,9.07
2023-04-15T21:52:56.457Z,9.06
2023-04-15T21:57:57.668Z,8.83
2023-04-15T22:02:59.732Z,9.18
2023-04-15T22:08:04.475Z,9.43
2023-04-15T22:13:08.552Z,9.46
2023-04-15T22:18:09.857Z,9.66
2023-04-15T22:23:11.062Z,9.84
2023-04-15T22:28:12.313Z,9.78
2023-04-15T22:33:13.581Z,9.71
2023-04-15T22:38:14.888Z,9.57
2023-04-15T22:43:16.198Z,9.64
2023-04-15T22:48:17.407Z,9.43
2023-04-15T22:53:18.676Z,9.69
2023-04-15T22:58:19.949Z,9.73
2023-04-15T23:03:21.374Z,9.60
2023-04-15T23:08:23.931Z,9.47
2023-04-15T23:13:25.575Z,8.43
2023-04-15T23:18:27.540Z,8.33
2023-04-15T23:23:28.760Z,8.06
2023-04-15T23:28:30.316Z,8.09
2023-04-15T23:33:32.587Z,8.00
2023-04-15T23:38:33.895Z,7.99
2023-04-15T23:43:35.344Z,8.17
2023-04-15T23:48:36.635Z,8.10
2023-04-15T23:53:37.905Z,8.10
2023-04-15T23:58:39.189Z,8.03
